Time;durP1;ratioP1;P1;durP2;ratioP2;P2;SDS_P1;SDS_P2;PMS_P1;PMS_P2;Temp;Humidity;BMP_temperature;BMP_pressure;BME280_temperature;BME280_humidity;BME280_pressure;Samples;Min_cycle;Max_cycle;Signal;HPM_P1;HPM_P2
2021/04/10 00:00:21;;;;;;;10.43;5.30;;;;;;;7.67;36.76;97514.06;10099758;29;20557;-75
2021/04/10 00:05:47;;;;;;;9.93;6.45;;;;;;;7.61;37.30;97510.09;10114773;29;20400;-75
2021/04/10 00:11:07;;;;;;;7.50;4.95;;;;;;;7.54;37.35;97502.63;10112422;29;20077;-76
2021/04/10 00:16:27;;;;;;;8.48;5.57;;;;;;;7.49;37.66;97504.38;10086187;29;20049;-75
2021/04/10 00:21:47;;;;;;;11.50;5.93;;;;;;;7.44;37.81;97502.59;10111689;29;20544;-76
2021/04/10 00:27:07;;;;;;;10.00;5.63;;;;;;;7.40;38.22;97502.28;10124967;29;20051;-75
2021/04/10 00:32:26;;;;;;;7.50;5.18;;;;;;;7.37;37.94;97493.06;10111077;29;20044;-75
2021/04/10 00:37:46;;;;;;;9.20;5.43;;;;;;;7.35;38.05;97492.19;10111317;29;20045;-75
2021/04/10 00:43:06;;;;;;;9.20;5.03;;;;;;;7.27;38.55;97477.69;10098399;29;20044;-75
2021/04/10 00:48:26;;;;;;;10.38;5.07;;;;;;;7.20;38.51;97478.53;10110745;29;20055;-75
2021/04/10 00:53:45;;;;;;;9.90;5.90;;;;;;;7.15;38.49;97481.03;10084871;29;20056;-76
2021/04/10 00:59:05;;;;;;;10.32;5.63;;;;;;;7.13;38.76;97474.56;10110455;29;20412;-75
2021/04/10 01:04:25;;;;;;;9.07;5.13;;;;;;;7.04;38.69;97473.22;10097100;29;20045;-75
2021/04/10 01:09:48;;;;;;;11.43;6.07;;;;;;;7.02;39.08;97470.28;10097321;29;20048;-75
2021/04/10 01:15:54;;;;;;;9.52;5.63;;;;;;;7.00;39.88;97463.84;10084431;29;20044;-75
2021/04/10 01:21:38;;;;;;;7.47;4.95;;;;;;;6.93;40.28;97461.91;10112433;29;20121;-75
2021/04/10 01:27:07;;;;;;;9.27;5.07;;;;;;;6.89;39.56;97454.75;10109672;29;20104;-75
2021/04/10 01:32:30;;;;;;;11.30;4.95;;;;;;;6.89;40.74;97451.25;10096746;29;20473;-75
2021/04/10 01:38:11;;;;;;;10.77;5.10;;;;;;;6.94;40.09;97449.50;10109986;29;20045;-74
2021/04/10 01:43:32;;;;;;;9.68;5.45;;;;;;;6.97;40.08;97449.09;10096533;29;20044;-76
2021/04/10 01:48:53;;;;;;;12.32;4.50;;;;;;;7.00;39.65;97452.75;10109281;29;20484;-75
2021/04/10 01:54:16;;;;;;;8.55;4.57;;;;;;;6.98;39.83;97447.78;10084471;29;20241;-75
2021/04/10 01:59:41;;;;;;;8.55;4.68;;;;;;;7.09;40.17;97452.78;10083754;29;20049;-75
2021/04/10 02:05:00;;;;;;;8.40;4.90;;;;;;;7.23;40.15;97442.03;10108751;29;20040;-76
2021/04/10 02:10:25;;;;;;;8.10;4.47;;;;;;;7.27;40.41;97444.38;10109110;29;20100;-74
2021/04/10 02:15:52;;;;;;;8.45;4.20;;;;;;;7.18;39.77;97456.91;10086689;29;20048;-75
2021/04/10 02:21:26;;;;;;;8.40;4.68;;;;;;;7.07;40.54;97447.09;10073940;29;20044;-75
2021/04/10 02:26:46;;;;;;;7.82;4.32;;;;;;;6.94;40.08;97443.97;10085399;29;20492;-77
2021/04/10 02:32:17;;;;;;;8.90;4.15;;;;;;;6.84;40.71;97438.38;10097888;29;20049;-76
2021/04/10 02:37:42;;;;;;;8.60;4.78;;;;;;;6.76;40.61;97423.91;10096315;29;20052;-75
2021/04/10 02:43:09;;;;;;;10.13;4.45;;;;;;;6.68;41.07;97426.03;10109409;29;20047;-75
2021/04/10 02:48:46;;;;;;;9.13;4.85;;;;;;;6.63;40.77;97418.72;10108824;29;20056;-75
2021/04/10 02:54:07;;;;;;;7.85;4.25;;;;;;;6.60;41.67;97407.47;10094719;29;20057;-75
2021/04/10 02:59:28;;;;;;;9.93;4.70;;;;;;;6.53;41.48;97413.09;10101637;29;20104;-75
2021/04/10 03:04:50;;;;;;;7.53;4.65;;;;;;;6.44;41.12;97413.78;10102481;29;20069;-75
2021/04/10 03:10:16;;;;;;;9.77;4.60;;;;;;;6.41;41.11;97404.59;10090187;29;20381;-75
2021/04/10 03:15:38;;;;;;;8.77;4.90;;;;;;;6.55;41.50;97413.25;10115029;29;20445;-74
2021/04/10 03:20:58;;;;;;;9.57;4.28;;;;;;;6.85;40.91;97425.97;10127216;29;20047;-75
2021/04/10 03:26:19;;;;;;;6.95;4.38;;;;;;;7.10;41.11;97409.84;10088232;29;20048;-75
2021/04/10 03:31:40;;;;;;;6.35;4.20;;;;;;;7.29;40.52;97416.78;10101623;29;20080;-75
2021/04/10 03:37:00;;;;;;;8.48;4.32;;;;;;;7.44;40.19;97410.97;10087784;29;20052;-75
2021/04/10 03:42:30;;;;;;;7.05;3.85;;;;;;;7.55;39.92;97415.94;10087650;29;20045;-75
2021/04/10 03:47:51;;;;;;;8.75;3.75;;;;;;;7.64;39.66;97420.06;10088395;29;20041;-76
2021/04/10 03:53:12;;;;;;;7.57;4.22;;;;;;;7.71;39.12;97417.13;10087730;29;20057;-76
2021/04/10 03:58:32;;;;;;;8.00;3.92;;;;;;;7.68;39.28;97421.06;10100186;29;20052;-76
2021/04/10 04:03:52;;;;;;;7.82;3.75;;;;;;;7.66;39.05;97426.50;10100368;29;20049;-77
2021/04/10 04:09:13;;;;;;;10.73;4.03;;;;;;;7.72;39.38;97423.41;10074267;29;20049;-75
2021/04/10 04:14:32;;;;;;;7.57;4.57;;;;;;;7.82;39.46;97424.16;10087780;29;20480;-76
2021/04/10 04:19:52;;;;;;;6.05;3.78;;;;;;;7.95;38.98;97428.56;10099991;29;20041;-77
2021/04/10 04:25:12;;;;;;;6.45;3.40;;;;;;;8.05;38.62;97426.50;10087088;29;20048;-75
2021/04/10 04:30:32;;;;;;;5.18;3.53;;;;;;;8.12;38.67;97425.63;10099737;29;20687;-75
2021/04/10 04:35:51;;;;;;;6.65;3.58;;;;;;;8.19;38.52;97432.34;10099825;29;20048;-76
2021/04/10 04:41:12;;;;;;;4.75;3.30;;;;;;;8.20;38.69;97439.34;10098763;29;20055;-76
2021/04/10 04:46:31;;;;;;;6.82;4.03;;;;;;;8.15;38.38;97441.13;10125631;29;20052;-76
2021/04/10 04:51:53;;;;;;;8.23;4.10;;;;;;;8.14;38.81;97431.31;10085836;29;20386;-76
2021/04/10 04:57:13;;;;;;;7.13;3.80;;;;;;;8.06;38.60;97452.97;10097191;29;20056;-76
2021/04/10 05:02:32;;;;;;;6.30;3.50;;;;;;;8.02;38.62;97461.78;10108532;29;20048;-76
2021/04/10 05:07:52;;;;;;;6.97;3.50;;;;;;;8.13;38.55;97452.09;10123977;29;20048;-76
2021/04/10 05:13:12;;;;;;;8.07;3.58;;;;;;;8.19;38.44;97449.00;10085089;29;20044;-77
2021/04/10 05:18:32;;;;;;;8.90;3.58;;;;;;;8.62;38.61;97457.66;10110343;29;20484;-76
2021/04/10 05:23:52;;;;;;;6.25;3.70;;;;;;;9.04;37.65;97457.06;10084618;29;20120;-76
2021/04/10 05:29:11;;;;;;;6.13;3.65;;;;;;;9.34;37.04;97445.22;10110654;29;20052;-77
2021/04/10 05:34:31;;;;;;;6.90;4.20;;;;;;;9.64;37.40;97443.72;10109589;29;20536;-76
2021/04/10 05:39:51;;;;;;;7.82;4.00;;;;;;;10.84;36.48;97445.06;10107739;29;20397;-77
2021/04/10 05:45:12;;;;;;;7.65;3.97;;;;;;;13.14;35.61;97441.38;10110202;29;20045;-77
2021/04/10 05:50:35;;;;;;;8.07;3.88;;;;;;;14.75;34.04;97452.88;10097174;29;20085;-76
2021/04/10 05:55:56;;;;;;;5.78;3.90;;;;;;;15.87;31.90;97457.88;10110882;29;20044;-76
2021/04/10 06:01:15;;;;;;;4.78;3.75;;;;;;;16.52;30.38;97457.00;10097565;29;20180;-77
2021/04/10 06:06:35;;;;;;;6.93;3.67;;;;;;;16.58;29.68;97448.75;10093274;29;20037;-77
2021/04/10 06:11:55;;;;;;;5.13;3.80;;;;;;;17.73;29.20;97448.81;10106785;29;20857;-75
2021/04/10 06:17:17;;;;;;;7.68;3.90;;;;;;;17.62;25.86;97449.81;10080336;29;20403;-76
2021/04/10 06:22:37;;;;;;;7.68;4.32;;;;;;;15.01;26.32;97452.66;10083356;29;20052;-76
2021/04/10 06:28:00;;;;;;;8.07;4.18;;;;;;;13.51;28.23;97460.09;10121857;29;20057;-80
2021/04/10 06:33:22;;;;;;;9.15;4.45;;;;;;;12.74;28.90;97451.13;10113753;29;20044;-76
2021/04/10 06:38:41;;;;;;;8.55;4.78;;;;;;;12.28;29.49;97436.78;10117232;29;20055;-78
2021/04/10 06:44:04;;;;;;;8.50;4.13;;;;;;;12.38;29.70;97450.59;10116466;29;20040;-78
2021/04/10 06:49:24;;;;;;;9.20;4.13;;;;;;;12.16;30.32;97436.09;10077927;29;20052;-77
2021/04/10 06:54:47;;;;;;;7.55;4.53;;;;;;;12.52;30.33;97425.44;10088096;29;20108;-76
2021/04/10 07:00:09;;;;;;;7.05;4.43;;;;;;;12.95;30.02;97438.97;10102942;29;20048;-76
2021/04/10 07:05:29;;;;;;;8.32;4.55;;;;;;;12.90;29.89;97433.13;10115957;29;20048;-76
2021/04/10 07:10:50;;;;;;;8.90;4.43;;;;;;;13.13;30.01;97445.53;10102864;29;20104;-75
2021/04/10 07:16:10;;;;;;;9.63;4.30;;;;;;;13.54;29.83;97442.06;10103457;29;20100;-74
2021/04/10 07:21:30;;;;;;;8.43;3.92;;;;;;;13.64;29.42;97431.34;10114574;29;20421;-75
2021/04/10 07:26:55;;;;;;;7.80;4.38;;;;;;;13.39;29.60;97458.13;10101888;29;20512;-74
2021/04/10 07:32:24;;;;;;;8.65;4.85;;;;;;;13.32;30.08;97469.66;10101448;29;20055;-74
2021/04/10 07:37:49;;;;;;;8.82;4.53;;;;;;;13.37;29.85;97471.31;10126911;29;20064;-74
2021/04/10 07:43:09;;;;;;;8.88;3.95;;;;;;;13.26;30.08;97478.47;10113718;29;20051;-74
2021/04/10 07:48:29;;;;;;;8.30;4.47;;;;;;;13.19;30.31;97479.50;10100668;29;20064;-74
2021/04/10 07:53:49;;;;;;;7.95;4.53;;;;;;;13.49;30.25;97499.25;10100368;29;20052;-74
2021/04/10 07:59:08;;;;;;;6.85;4.03;;;;;;;13.81;30.26;97486.91;10087421;29;20047;-74
2021/04/10 08:04:28;;;;;;;14.35;4.40;;;;;;;14.80;29.98;97495.97;10100269;29;20044;-74
2021/04/10 08:09:48;;;;;;;8.35;4.43;;;;;;;17.82;26.97;97507.00;10087553;29;20049;-76
2021/04/10 08:15:08;;;;;;;11.68;4.13;;;;;;;18.20;25.72;97509.72;10101750;29;20056;-78
2021/04/10 08:20:30;;;;;;;9.25;4.63;;;;;;;18.40;25.90;97516.06;10100652;29;20472;-76
2021/04/10 08:25:49;;;;;;;10.15;3.85;;;;;;;18.96;25.82;97515.75;10083518;29;20045;-75
2021/04/10 08:31:09;;;;;;;6.93;3.33;;;;;;;18.19;25.30;97522.41;10099110;29;20051;-75
2021/04/10 08:36:29;;;;;;;5.60;3.25;;;;;;;17.67;25.20;97538.91;10098788;29;20507;-76
2021/04/10 08:41:50;;;;;;;4.97;2.80;;;;;;;17.37;25.96;97544.88;10111434;29;20040;-75
2021/04/10 08:47:10;;;;;;;6.22;3.28;;;;;;;17.80;25.42;97552.13;10111600;29;20499;-74
2021/04/10 08:52:33;;;;;;;6.40;3.15;;;;;;;17.15;25.27;97558.13;10085827;29;20067;-75
2021/04/10 08:57:53;;;;;;;5.90;3.05;;;;;;;16.04;26.40;97555.00;10084914;29;20040;-75
2021/04/10 09:03:12;;;;;;;5.80;3.08;;;;;;;15.41;26.62;97558.53;10110826;29;20045;-75
2021/04/10 09:08:32;;;;;;;6.97;3.20;;;;;;;14.83;27.32;97554.41;10098184;29;20493;-75
2021/04/10 09:13:52;;;;;;;7.40;2.88;;;;;;;14.59;28.22;97570.84;10098164;29;20075;-75
2021/04/10 09:19:17;;;;;;;4.68;2.92;;;;;;;14.53;28.97;97578.94;10098237;29;20075;-76
2021/04/10 09:24:37;;;;;;;6.65;3.30;;;;;;;14.21;29.00;97591.34;10110174;29;20044;-75
2021/04/10 09:30:04;;;;;;;8.80;3.25;;;;;;;14.13;30.13;97594.47;10137158;29;20056;-74
2021/04/10 09:35:24;;;;;;;5.93;3.40;;;;;;;14.20;29.88;97581.47;10096793;29;20048;-75
2021/04/10 09:40:47;;;;;;;9.63;3.35;;;;;;;14.29;30.96;97594.56;10096733;29;20055;-75
2021/04/10 09:46:31;;;;;;;7.13;3.13;;;;;;;14.24;30.67;97587.28;10096861;29;20047;-75
2021/04/10 09:51:50;;;;;;;5.70;3.30;;;;;;;14.23;31.23;97599.88;10086200;29;20496;-75
2021/04/10 09:57:17;;;;;;;5.28;3.00;;;;;;;14.75;31.02;97592.63;10084590;29;20098;-78
2021/04/10 10:02:37;;;;;;;6.03;2.65;;;;;;;14.91;31.40;97585.00;10097166;29;20048;-76
2021/04/10 10:08:14;;;;;;;4.82;3.25;;;;;;;15.40;31.35;97601.34;10099092;29;20067;-80
2021/04/10 10:13:35;;;;;;;8.23;3.28;;;;;;;16.65;30.18;97611.06;10110984;29;20041;-79
2021/04/10 10:18:55;;;;;;;6.30;2.85;;;;;;;17.31;29.56;97615.16;10112221;29;20111;-80
2021/04/10 10:24:21;;;;;;;6.88;2.78;;;;;;;17.24;29.66;97615.56;10109948;29;20048;-79
2021/04/10 10:29:41;;;;;;;5.93;2.78;;;;;;;17.03;29.54;97622.50;10137589;29;20056;-79
2021/04/10 10:35:08;;;;;;;4.07;2.40;;;;;;;16.98;30.05;97634.97;10096733;29;20048;-80
2021/04/10 10:40:27;;;;;;;6.45;2.50;;;;;;;16.29;30.52;97622.25;10110151;29;20044;-80
2021/04/10 10:45:49;;;;;;;5.72;2.20;;;;;;;15.84;31.85;97624.47;10096125;29;20420;-77
2021/04/10 10:51:18;;;;;;;6.68;2.10;;;;;;;15.39;31.83;97631.56;10084010;29;20066;-79
2021/04/10 10:56:39;;;;;;;7.30;2.67;;;;;;;15.27;33.17;97635.88;10097216;29;20044;-79
2021/04/10 11:01:59;;;;;;;6.82;2.50;;;;;;;14.77;34.16;97623.66;10123651;29;20051;-78
2021/04/10 11:07:23;;;;;;;6.10;2.00;;;;;;;14.44;34.66;97630.44;10097280;29;20120;-79
2021/04/10 11:12:43;;;;;;;6.00;2.25;;;;;;;14.50;34.61;97642.00;10097406;29;20049;-80
2021/04/10 11:18:03;;;;;;;7.18;2.85;;;;;;;14.17;36.54;97638.84;10098977;29;20531;-79
2021/04/10 11:23:23;;;;;;;5.70;2.53;;;;;;;13.98;36.07;97628.75;10116935;29;20045;-77
2021/04/10 11:28:43;;;;;;;5.63;2.30;;;;;;;14.16;36.26;97626.88;10114449;29;20068;-78
2021/04/10 11:34:54;;;;;;;5.03;2.50;;;;;;;14.42;38.40;97644.38;10105025;29;20120;-78
2021/04/10 11:40:28;;;;;;;5.45;2.20;;;;;;;13.93;39.11;97649.53;10132895;29;20048;-78
2021/04/10 11:45:50;;;;;;;6.95;2.58;;;;;;;13.59;39.24;97643.53;10117754;29;20048;-79
2021/04/10 11:51:10;;;;;;;8.43;2.63;;;;;;;13.61;40.15;97640.88;10104065;29;20052;-79
2021/04/10 11:56:31;;;;;;;6.00;2.75;;;;;;;13.70;40.30;97644.81;10126297;29;20044;-79
2021/04/10 12:01:51;;;;;;;5.20;1.95;;;;;;;14.26;40.32;97649.88;10126596;29;20041;-79
2021/04/10 12:07:11;;;;;;;4.32;2.30;;;;;;;15.10;39.02;97642.81;10114958;29;20044;-79
2021/04/10 12:12:31;;;;;;;5.50;2.10;;;;;;;15.44;38.22;97655.72;10088275;29;20044;-79
2021/04/10 12:17:51;;;;;;;5.20;2.03;;;;;;;15.37;38.81;97639.19;10098805;29;20373;-79
2021/04/10 12:23:14;;;;;;;4.18;2.10;;;;;;;15.29;38.60;97650.03;10113191;29;20051;-79
2021/04/10 12:54:36;;;;;;;3.88;2.20;;;;;;;15.74;38.75;97625.47;12226027;23;20036;31
2021/04/10 13:06:31;;;;;;;5.15;2.40;;;;;;;16.66;37.84;97620.97;12373685;23;20035;31
2021/04/10 13:11:51;;;;;;;8.75;2.60;;;;;;;17.33;37.56;97618.06;10019260;29;20050;-77
2021/04/10 13:17:12;;;;;;;3.70;1.95;;;;;;;17.77;36.88;97609.88;10032604;29;20044;-79
2021/04/10 13:22:52;;;;;;;4.70;2.45;;;;;;;18.54;36.40;97603.44;10417883;23;20075;-78
2021/04/10 13:28:12;;;;;;;5.03;2.67;;;;;;;19.12;35.67;97610.34;10131795;29;20128;-82
2021/04/10 13:33:31;;;;;;;4.22;2.28;;;;;;;19.12;35.33;97610.34;10126178;29;20100;-79
2021/04/10 13:38:52;;;;;;;6.32;2.30;;;;;;;19.03;34.27;97608.63;10123671;29;20503;-76
2021/04/10 13:44:14;;;;;;;5.78;2.90;;;;;;;18.52;34.71;97609.00;10123182;29;20048;-76
2021/04/10 13:49:34;;;;;;;4.97;2.67;;;;;;;18.20;35.31;97614.25;10145807;29;20044;-78
2021/04/10 13:54:54;;;;;;;4.68;2.25;;;;;;;18.28;35.22;97606.06;10137431;29;20044;-79
2021/04/10 14:00:14;;;;;;;7.47;2.08;;;;;;;18.23;35.09;97610.84;10126512;29;20047;-79
2021/04/10 14:05:35;;;;;;;5.13;2.10;;;;;;;17.70;35.17;97596.91;10125346;29;20056;-75
2021/04/10 14:10:55;;;;;;;5.68;2.05;;;;;;;17.28;35.88;97598.81;10099966;29;20523;-78
2021/04/10 14:16:15;;;;;;;6.55;2.55;;;;;;;16.98;37.11;97601.13;10098406;29;20067;-77
2021/04/10 14:21:34;;;;;;;5.68;2.55;;;;;;;16.93;37.23;97602.34;10110086;29;20064;-76
2021/04/10 14:26:55;;;;;;;5.10;2.10;;;;;;;16.83;37.21;97597.75;10110799;29;20052;-75
2021/04/10 14:32:14;;;;;;;3.55;2.28;;;;;;;16.69;37.02;97602.81;10106404;29;20392;-75
2021/04/10 14:37:34;;;;;;;4.55;2.42;;;;;;;16.78;37.25;97601.78;10120190;29;20453;-76
2021/04/10 14:42:56;;;;;;;4.63;2.00;;;;;;;16.83;37.38;97592.13;10095165;29;20449;-76
2021/04/10 14:48:20;;;;;;;4.82;1.73;;;;;;;16.76;37.35;97589.69;10095039;29;20044;-76
2021/04/10 14:53:40;;;;;;;3.88;1.88;;;;;;;16.78;37.55;97584.84;10124519;29;20044;-75
2021/04/10 14:59:00;;;;;;;4.40;2.08;;;;;;;16.65;37.53;97571.63;10115351;29;20393;-75
2021/04/10 15:04:20;;;;;;;6.43;2.20;;;;;;;16.82;37.45;97579.41;10063386;29;20052;-75
2021/04/10 15:09:40;;;;;;;7.55;2.25;;;;;;;16.92;37.54;97575.53;10113523;29;20440;-74
2021/04/10 15:14:59;;;;;;;4.35;2.80;;;;;;;17.12;37.65;97574.25;10114579;29;20052;-74
2021/04/10 15:20:19;;;;;;;5.05;2.28;;;;;;;17.01;37.32;97577.31;10114371;29;20473;-74
2021/04/10 15:25:39;;;;;;;6.05;2.40;;;;;;;16.91;37.67;97574.09;10114437;29;20481;-75
2021/04/10 15:31:03;;;;;;;4.85;2.97;;;;;;;16.71;37.80;97588.09;10127193;29;20051;-76
2021/04/10 15:36:26;;;;;;;7.20;2.40;;;;;;;16.51;37.87;97593.59;10127690;29;20449;-75
2021/04/10 15:41:45;;;;;;;5.72;2.58;;;;;;;16.19;38.24;97590.81;10126831;29;20478;-74
2021/04/10 15:47:05;;;;;;;5.18;2.50;;;;;;;15.94;38.33;97579.88;10139885;29;20386;-74
2021/04/10 15:52:25;;;;;;;4.78;2.60;;;;;;;15.79;38.70;97584.16;10126351;29;20040;-73
2021/04/10 15:57:48;;;;;;;5.57;2.38;;;;;;;15.57;39.47;97577.50;10127148;29;20048;-75
2021/04/10 16:03:07;;;;;;;5.40;2.50;;;;;;;15.41;39.36;97571.84;10128219;29;20405;-77
2021/04/10 16:08:27;;;;;;;4.95;2.30;;;;;;;15.35;39.48;97566.69;10125716;29;20041;-75
2021/04/10 16:13:47;;;;;;;4.30;2.50;;;;;;;15.33;39.79;97560.22;10116588;29;20053;-77
2021/04/10 16:19:07;;;;;;;6.85;2.47;;;;;;;15.22;39.81;97563.94;10116536;29;20068;-79
2021/04/10 16:24:27;;;;;;;6.85;2.40;;;;;;;15.15;39.99;97571.34;10126666;29;20100;-75
2021/04/10 16:29:47;;;;;;;4.47;2.72;;;;;;;15.02;40.58;97574.97;10113075;29;20048;-75
2021/04/10 16:35:07;;;;;;;6.38;2.58;;;;;;;14.81;40.57;97562.75;10112497;29;20512;-79
2021/04/10 16:40:30;;;;;;;10.63;6.80;;;;;;;14.70;41.04;97568.53;10098610;29;20045;-78
2021/04/10 16:45:50;;;;;;;10.95;5.80;;;;;;;14.57;41.13;97567.94;10116565;29;20055;-79
2021/04/10 16:51:10;;;;;;;14.68;7.28;;;;;;;14.43;41.19;97570.00;10116009;29;20064;-79
2021/04/10 16:56:29;;;;;;;11.48;6.60;;;;;;;14.22;41.20;97573.16;10115146;29;20044;-78
2021/04/10 17:01:49;;;;;;;12.75;7.25;;;;;;;14.07;41.96;97565.34;10128190;29;20044;-79
2021/04/10 17:07:09;;;;;;;15.32;7.60;;;;;;;13.93;42.11;97559.75;10113009;29;20477;-75
2021/04/10 17:12:28;;;;;;;16.45;8.05;;;;;;;13.83;42.18;97562.03;10097546;29;20100;-74
2021/04/10 17:17:48;;;;;;;17.40;8.30;;;;;;;13.73;42.24;97562.25;10111140;29;20049;-79
2021/04/10 17:23:08;;;;;;;15.68;7.88;;;;;;;13.59;42.55;97564.28;10114249;29;20061;-77
2021/04/10 17:28:29;;;;;;;12.30;7.78;;;;;;;13.46;42.81;97560.84;10113219;29;20041;-79
2021/04/10 17:33:49;;;;;;;12.63;7.85;;;;;;;13.35;43.68;97556.03;10101931;29;20101;-78
2021/04/10 17:39:10;;;;;;;17.10;9.32;;;;;;;13.25;43.04;97535.88;10124337;29;20104;-76
2021/04/10 17:44:30;;;;;;;17.17;8.65;;;;;;;13.14;43.51;97542.28;10113076;29;20040;-79
2021/04/10 17:49:50;;;;;;;14.65;8.32;;;;;;;13.02;43.66;97541.59;10125224;29;20055;-76
2021/04/10 17:55:12;;;;;;;15.20;9.25;;;;;;;12.94;44.10;97541.91;10124296;29;20045;-77
2021/04/10 18:00:32;;;;;;;16.00;10.05;;;;;;;12.88;44.41;97545.06;10112115;29;20048;-77
2021/04/10 18:05:53;;;;;;;15.95;9.85;;;;;;;12.81;44.51;97560.06;10107555;29;20049;-76
2021/04/10 18:11:12;;;;;;;16.92;10.52;;;;;;;12.78;44.97;97564.13;10095802;29;20048;-76
2021/04/10 18:16:32;;;;;;;17.35;10.55;;;;;;;12.75;44.89;97576.56;10122703;29;20045;-77
2021/04/10 18:21:52;;;;;;;17.05;10.30;;;;;;;12.71;44.99;97565.13;10107098;29;20142;-76
2021/04/10 18:27:12;;;;;;;18.52;10.63;;;;;;;12.65;45.37;97576.00;10110766;29;20044;-75
2021/04/10 18:32:32;;;;;;;19.35;10.25;;;;;;;12.62;45.34;97577.19;10105512;29;20045;-75
2021/04/10 18:37:57;;;;;;;17.60;10.32;;;;;;;12.56;46.03;97577.59;10116474;29;20540;-75
2021/04/10 18:43:21;;;;;;;16.40;9.32;;;;;;;12.51;45.88;97594.78;10131913;29;20100;-76
2021/04/10 18:48:41;;;;;;;18.50;9.90;;;;;;;12.49;46.13;97586.25;10116502;29;20104;-75
2021/04/10 18:54:02;;;;;;;15.48;9.40;;;;;;;12.40;46.51;97585.06;10132370;29;20048;-79
2021/04/10 18:59:21;;;;;;;18.70;10.80;;;;;;;12.36;46.64;97592.50;10132611;29;20048;-79
2021/04/10 19:04:41;;;;;;;19.70;10.20;;;;;;;12.27;46.81;97589.22;10121110;29;20045;-79
2021/04/10 19:10:01;;;;;;;17.25;10.07;;;;;;;12.21;47.60;97588.88;10120616;29;20045;-79
2021/04/10 19:15:49;;;;;;;16.17;8.65;;;;;;;12.11;48.04;97582.69;10127474;29;20045;-78
2021/04/10 19:21:09;;;;;;;16.85;8.65;;;;;;;11.97;50.39;97570.66;10119812;29;20068;-79
2021/04/10 19:26:28;;;;;;;14.27;7.50;;;;;;;11.74;49.68;97576.94;10119719;29;20048;-79
2021/04/10 19:31:49;;;;;;;16.20;7.10;;;;;;;11.56;50.79;97573.06;10106372;29;20056;-79
2021/04/10 19:37:12;;;;;;;11.80;6.65;;;;;;;11.40;50.32;97564.44;10106019;29;20052;-78
2021/04/10 19:43:00;;;;;;;14.55;7.00;;;;;;;11.38;51.30;97564.28;10133343;29;20052;-79
2021/04/10 19:48:20;;;;;;;11.75;6.75;;;;;;;11.41;51.31;97558.22;10114545;29;20105;-75
2021/04/10 19:53:39;;;;;;;12.95;6.82;;;;;;;11.41;51.57;97560.28;10115550;29;20096;-75
2021/04/10 19:58:59;;;;;;;10.88;6.88;;;;;;;11.31;52.63;97554.09;10114654;29;20051;-79
2021/04/10 20:04:19;;;;;;;12.60;7.45;;;;;;;11.15;52.87;97562.91;10128617;29;20507;-79
2021/04/10 20:09:40;;;;;;;13.63;8.27;;;;;;;11.04;54.17;97574.06;10114434;29;20045;-79
2021/04/10 20:14:59;;;;;;;14.02;8.32;;;;;;;11.00;53.57;97568.97;10113889;29;20052;-79
2021/04/10 20:20:20;;;;;;;16.95;7.85;;;;;;;11.00;53.17;97566.16;10112453;29;20060;-79
2021/04/10 20:25:40;;;;;;;11.93;8.15;;;;;;;10.99;54.03;97559.09;10125558;29;20040;-79
2021/04/10 20:31:16;;;;;;;17.73;9.38;;;;;;;10.94;53.70;97551.81;10101151;29;20057;-79
2021/04/10 20:36:41;;;;;;;15.95;9.75;;;;;;;10.82;54.62;97560.16;10102576;29;20045;-79
2021/04/10 20:42:09;;;;;;;14.95;9.82;;;;;;;10.78;54.74;97545.19;10101026;29;20044;-79
2021/04/10 20:47:29;;;;;;;18.30;9.25;;;;;;;10.68;54.96;97530.59;10126244;29;20052;-79
2021/04/10 20:52:49;;;;;;;12.75;8.80;;;;;;;10.55;55.73;97524.25;10124904;29;20072;-79
2021/04/10 20:58:08;;;;;;;17.35;9.63;;;;;;;10.50;55.59;97519.00;10112864;29;20100;-79
2021/04/10 21:03:28;;;;;;;17.42;10.43;;;;;;;10.41;55.44;97520.53;10112425;29;20047;-79
2021/04/10 21:08:48;;;;;;;16.15;9.35;;;;;;;10.31;56.38;97517.81;10113233;29;20056;-79
2021/04/10 21:14:08;;;;;;;17.48;9.40;;;;;;;10.23;56.76;97514.53;10113233;29;20048;-79
2021/04/10 21:19:28;;;;;;;13.48;8.55;;;;;;;10.13;58.21;97507.50;10112682;29;20468;-79
2021/04/10 21:24:48;;;;;;;19.05;9.48;;;;;;;10.07;58.46;97495.97;10098921;29;20472;-80
2021/04/10 21:30:09;;;;;;;15.00;8.25;;;;;;;10.02;59.16;97495.69;10125382;29;20540;-79
2021/04/10 21:35:28;;;;;;;15.20;7.93;;;;;;;10.00;58.86;97495.56;10125541;29;20433;-78
2021/04/10 21:40:48;;;;;;;13.30;7.45;;;;;;;9.98;59.46;97508.66;10124909;29;20536;-79
2021/04/10 21:46:10;;;;;;;14.00;8.18;;;;;;;9.89;59.64;97499.03;10111749;29;20056;-79
2021/04/10 21:51:33;;;;;;;13.63;7.43;;;;;;;9.84;59.60;97491.69;10111908;29;20048;-79
2021/04/10 21:56:53;;;;;;;15.00;8.13;;;;;;;9.81;59.72;97483.81;10098541;29;20048;-79
2021/04/10 22:02:13;;;;;;;13.10;7.70;;;;;;;9.74;59.80;97482.66;10110984;29;20040;-78
2021/04/10 22:07:32;;;;;;;16.35;8.30;;;;;;;9.69;59.67;97473.31;10098295;29;20040;-78
2021/04/10 22:12:52;;;;;;;14.18;7.57;;;;;;;9.71;59.47;97464.34;10098267;29;20045;-78
2021/04/10 22:18:12;;;;;;;14.23;7.97;;;;;;;9.70;59.59;97468.47;10111301;29;20500;-79
2021/04/10 22:23:32;;;;;;;13.48;8.23;;;;;;;9.66;59.63;97460.59;10124344;29;20048;-78
2021/04/10 22:28:52;;;;;;;13.55;7.55;;;;;;;9.62;59.33;97457.53;10123818;29;20056;-79
2021/04/10 22:34:12;;;;;;;13.13;8.35;;;;;;;9.53;59.68;97454.78;10110717;29;20504;-79
2021/04/10 22:39:32;;;;;;;14.27;8.43;;;;;;;9.44;59.64;97453.50;10110611;29;20481;-79
2021/04/10 22:44:51;;;;;;;12.85;7.93;;;;;;;9.39;59.53;97449.75;10124006;29;20045;-79
2021/04/10 22:50:11;;;;;;;15.07;8.52;;;;;;;9.27;59.52;97457.28;10098281;29;20052;-79
2021/04/10 22:55:33;;;;;;;17.02;9.85;;;;;;;9.22;59.92;97440.88;10110865;29;20044;-79
2021/04/10 23:00:53;;;;;;;15.48;9.23;;;;;;;9.13;59.88;97453.53;10110743;29;20068;-79
2021/04/10 23:06:21;;;;;;;14.93;10.23;;;;;;;9.13;60.34;97445.16;10110324;29;20057;-78
2021/04/10 23:11:40;;;;;;;15.63;9.65;;;;;;;9.11;60.20;97451.34;10135215;29;20067;-79
2021/04/10 23:17:00;;;;;;;15.63;9.20;;;;;;;9.06;60.20;97451.63;10115817;29;20052;-79
2021/04/10 23:22:20;;;;;;;16.55;9.35;;;;;;;9.03;60.32;97447.25;10129000;29;20480;-79
2021/04/10 23:27:40;;;;;;;14.18;9.07;;;;;;;9.00;60.41;97443.63;10115328;29;20044;-79
2021/04/10 23:33:18;;;;;;;16.67;9.07;;;;;;;8.95;60.46;97444.66;10128657;29;20396;-79
2021/04/10 23:38:38;;;;;;;14.65;8.60;;;;;;;8.90;60.29;97431.78;10140431;29;20044;-79
2021/04/10 23:43:57;;;;;;;13.70;8.82;;;;;;;8.85;59.71;97427.97;10141265;29;20515;-79
2021/04/10 23:49:18;;;;;;;13.95;8.55;;;;;;;8.81;60.03;97430.50;10128790;29;20396;-79
2021/04/10 23:54:39;;;;;;;17.40;8.82;;;;;;;8.76;60.33;97420.38;10141326;29;20120;-79
2021/04/10 23:59:59;;;;;;;14.35;9.13;;;;;;;8.75;60.17;97420.97;10127992;29;20048;-79
